Aeroporto :
LOGIN :

Iscrizione | Disclaimer

   EN    FR    IT 

 










Sommario :    VFR   VFR Marginale   IFR   IFR Intensivo   IFR Molto Intensivo
Visibilità : 
Base nubi : 
>= 8 km
>= 3000ft
5 / 8 km
1000 / 3000 ft
1500m / 5 km
500 / 1000 ft
800 / 1500m
200 / 500 ft
< 800m
< 200 ft
Simboli :   Temporali  Nebbia  Neve Forte  Precipitazioni Forti  Vento > 20 kt
SIGMETs :   Varie  Temporali  Ghiacco  Turbolenza  Onda orograficha  Ceneri Vulcaniche







- Altitudine del aeroporto : 821 ft
- Codice IATA : LYS
- Carte del aeroporto


LFLL - Lyon St Exupéry / Satolas

ULTIMO METAR :
  • 260200Z AUTO 17003KT 9999 FEW042 OVC130 07/06 Q1015

METARs OBSOLETI :
  • 260130Z AUTO 14008KT 9999 FEW042 OVC110 07/06 Q1015
  • 260100Z AUTO 14008KT 9999 -RA FEW036/// SCT044/// BKN052/// ///TCU 07/06 Q1015
  • 260030Z AUTO 14008KT 5000 +RA BR FEW030/// OVC037/// ///CB 07/06 Q1015
  • 260000Z AUTO 16007KT 9999 RA FEW034/// OVC040/// ///CB 07/06 Q1016
  • 252330Z AUTO 16006KT 6000 +RA OVC038/// ///TCU 07/06 Q1016

TAF TAF LFLL
Valido dal 25 a 18 ore il 27 a 00 ore UTC


251700Z 2518/2624 33012KT 8000 RA BKN030
FM252000 22012KT 4000 RA BKN030
TEMPO 2520/2523 VRB15G25KT 2000 +RA BKN012 OVC030
FM260000 14012KT 9999 SCT020
BECMG 2601/2603 NSC
BECMG 2607/2609 24012KT FEW035TCU BKN090
TEMPO 2611/2624 VRB15G25KT 4500 SHRA BKN035TCU
PROB40
TEMPO 2614/2619 VRB20G35KT 2000 TSRA BKN030CB
Nessun NOTAM noto per questo aeroporto.
1 SIGMET conosciuto per la FIR Marseille (LFMM) :
 
Temporali affogati
LFMM SIGMET 1 VALID 260200/260400 LFPW
LFMM MARSEILLE FIR/UIR EMBD TS OBS WI N4330 E00600 - N4330 E00515 - N4500 E00545 - N4445 E00630 - N4330 E00600 TOP FL240 STNR NC=



MetMap, La meteo Aeronautica in un colpo d'occhio ! - Copyright ORBIFLY Dicembre 2007 - Disclaimer

ORBIFLY MET'MAP TEAM :

Programmazione e sviluppo : Alexandra Zaïnal
Concezione e sviluppo : Baudouin d'Aumeries
Co-Programmazione e sviluppo : Marc-Olivier Méhu
Supporto tecnico e logistico : Manuel Goepfert
Aiuto per la traduzione : Arnaldo La Scala

Contatto : metmap@orbifly.com




FONTI E CREDITI :

   NOAA